Time;durP1;ratioP1;P1;durP2;ratioP2;P2;SDS_P1;SDS_P2;PMS_P1;PMS_P2;Temp;Humidity;BMP_temperature;BMP_pressure;BME280_temperature;BME280_humidity;BME280_pressure;Samples;Min_cycle;Max_cycle;Signal;HPM_P1;HPM_P2
2023/02/10 00:00:19;;;;;;;77.05;38.92;;;5.80;99.90;;;;;;5042583;28;20114;-68
2023/02/10 00:02:45;;;;;;;80.38;39.95;;;5.80;99.90;;;;;;5043729;28;20035;-68
2023/02/10 00:05:10;;;;;;;88.53;43.22;;;5.80;99.90;;;;;;5043590;28;20026;-68
2023/02/10 00:07:36;;;;;;;75.40;38.72;;;5.80;99.90;;;;;;5043142;28;20112;-68
2023/02/10 00:10:02;;;;;;;81.25;41.22;;;5.80;99.90;;;;;;5041646;28;20406;-68
2023/02/10 00:12:27;;;;;;;80.00;41.00;;;5.80;99.90;;;;;;5046036;28;20037;-68
2023/02/10 00:14:53;;;;;;;85.05;42.63;;;5.80;99.90;;;;;;5041596;28;20017;-68
2023/02/10 00:17:19;;;;;;;77.97;39.15;;;5.80;99.90;;;;;;5045896;28;20381;-68
2023/02/10 00:19:44;;;;;;;70.60;36.20;;;5.90;99.90;;;;;;5045817;28;20025;-68
2023/02/10 00:22:10;;;;;;;87.45;44.03;;;5.90;99.90;;;;;;5047556;28;20099;-68
2023/02/10 00:24:35;;;;;;;74.18;39.85;;;5.90;99.90;;;;;;5040498;28;20033;-68
2023/02/10 00:27:01;;;;;;;76.40;39.30;;;5.90;99.90;;;;;;5043555;28;20029;-68
2023/02/10 00:29:27;;;;;;;80.38;41.00;;;5.90;99.90;;;;;;5046955;28;20582;-68
2023/02/10 00:31:52;;;;;;;88.32;42.03;;;5.90;99.90;;;;;;5046669;28;20044;-68
2023/02/10 00:34:18;;;;;;;82.85;42.70;;;5.80;99.90;;;;;;5063768;28;20033;-68
2023/02/10 00:36:44;;;;;;;86.50;44.42;;;5.80;99.90;;;;;;5045389;28;20037;-68
2023/02/10 00:39:14;;;;;;;86.80;43.85;;;5.90;99.90;;;;;;5047153;28;20481;-67
2023/02/10 00:41:40;;;;;;;96.53;46.92;;;5.80;99.90;;;;;;5042060;28;20501;-68
2023/02/10 00:44:05;;;;;;;82.22;44.13;;;5.80;99.90;;;;;;5046282;28;20025;-68
2023/02/10 00:46:31;;;;;;;89.53;44.45;;;5.70;99.90;;;;;;5044849;28;20029;-68
2023/02/10 00:48:57;;;;;;;96.00;46.30;;;5.60;99.90;;;;;;5054609;28;20025;-68
2023/02/10 00:51:23;;;;;;;101.55;47.83;;;5.70;99.90;;;;;;5042585;28;20033;-68
2023/02/10 00:53:52;;;;;;;97.45;49.90;;;5.60;99.90;;;;;;5046554;28;20021;-67
2023/02/10 00:56:19;;;;;;;97.50;50.15;;;5.50;99.90;;;;;;5041361;28;20090;-68
2023/02/10 00:58:46;;;;;;;96.10;48.08;;;5.50;99.90;;;;;;5042505;28;20416;-68
2023/02/10 01:01:11;;;;;;;87.25;43.28;;;5.50;99.90;;;;;;5049102;28;20036;-68
2023/02/10 01:03:38;;;;;;;90.25;46.88;;;5.50;99.90;;;;;;5039867;28;20359;-68
2023/02/10 01:06:04;;;;;;;88.53;44.33;;;5.50;99.90;;;;;;5044889;28;20048;-68
2023/02/10 01:08:30;;;;;;;89.00;44.50;;;5.40;99.90;;;;;;5049793;28;20480;-68
2023/02/10 01:10:59;;;;;;;92.88;44.92;;;5.40;99.90;;;;;;5046083;28;20017;-68
2023/02/10 01:13:25;;;;;;;87.95;43.15;;;5.50;99.90;;;;;;5049642;28;20040;-68
2023/02/10 01:15:50;;;;;;;94.30;44.90;;;5.40;99.90;;;;;;5047816;28;20026;-67
2023/02/10 01:18:16;;;;;;;94.22;48.45;;;5.40;99.90;;;;;;5051007;28;20379;-68
2023/02/10 01:20:42;;;;;;;89.07;43.38;;;5.30;99.90;;;;;;5047730;28;20106;-68
2023/02/10 01:23:09;;;;;;;89.72;45.72;;;5.20;99.90;;;;;;5048497;28;20033;-68
2023/02/10 01:25:36;;;;;;;90.00;45.10;;;5.20;99.90;;;;;;5055814;28;20413;-68
2023/02/10 01:28:03;;;;;;;92.10;46.20;;;5.10;99.90;;;;;;5048361;28;20474;-68
2023/02/10 01:30:29;;;;;;;87.63;45.00;;;5.10;99.90;;;;;;5044282;28;20024;-67
2023/02/10 01:32:56;;;;;;;80.03;41.78;;;5.10;99.90;;;;;;5040287;28;20038;-68
2023/02/10 01:35:21;;;;;;;89.85;43.00;;;5.10;99.90;;;;;;5050563;28;20018;-68
2023/02/10 01:37:47;;;;;;;90.75;45.33;;;5.00;99.90;;;;;;5050379;28;20079;-68
2023/02/10 01:40:13;;;;;;;95.15;45.30;;;5.00;99.90;;;;;;5039248;28;20028;-68
2023/02/10 01:42:42;;;;;;;87.60;43.30;;;4.90;99.90;;;;;;5045427;28;20030;-68
2023/02/10 01:45:26;;;;;;;92.45;46.15;;;5.00;99.90;;;;;;5047293;28;20025;-68
2023/02/10 01:47:53;;;;;;;86.68;41.47;;;5.00;99.90;;;;;;5045649;28;20129;-68
2023/02/10 01:50:24;;;;;;;92.47;44.20;;;5.00;99.90;;;;;;5048869;28;20044;-68
2023/02/10 01:52:50;;;;;;;85.35;43.33;;;5.00;99.90;;;;;;5050505;28;20032;-68
2023/02/10 01:55:21;;;;;;;90.18;43.25;;;4.90;99.90;;;;;;5044082;28;20094;-68
2023/02/10 01:57:48;;;;;;;88.40;42.72;;;5.00;99.90;;;;;;5051882;28;20112;-68
2023/02/10 02:00:15;;;;;;;82.90;42.35;;;4.90;99.90;;;;;;5047883;28;20113;-68
2023/02/10 02:02:43;;;;;;;91.70;45.42;;;4.90;99.90;;;;;;5044393;28;20033;-67
2023/02/10 02:05:40;;;;;;;87.63;44.33;;;4.90;99.90;;;;;;5046558;28;20040;-67
2023/02/10 02:08:11;;;;;;;85.57;41.95;;;4.90;99.90;;;;;;5038885;28;20029;-68
2023/02/10 02:10:47;;;;;;;84.80;41.88;;;4.90;99.90;;;;;;5047261;28;20040;-68
2023/02/10 02:13:38;;;;;;;85.65;43.25;;;4.90;99.90;;;;;;5042219;28;20039;-68
2023/02/10 02:16:12;;;;;;;93.47;43.60;;;4.80;99.90;;;;;;5046819;28;20041;-68
2023/02/10 02:18:52;;;;;;;92.50;44.75;;;4.80;99.90;;;;;;5038266;28;20044;-68
2023/02/10 02:21:39;;;;;;;101.10;47.00;;;4.70;99.90;;;;;;5045983;28;20026;-67
2023/02/10 02:24:25;;;;;;;91.50;45.60;;;4.70;99.90;;;;;;5040911;28;20034;-67
2023/02/10 02:27:15;;;;;;;94.38;45.95;;;4.60;99.90;;;;;;5049676;28;20170;-67
2023/02/10 02:30:04;;;;;;;96.75;46.80;;;4.50;99.90;;;;;;5041073;28;20029;-67
2023/02/10 02:32:41;;;;;;;93.35;44.40;;;4.50;99.90;;;;;;5053684;28;20477;-67
2023/02/10 02:35:11;;;;;;;100.97;47.25;;;4.50;99.90;;;;;;5039966;28;20530;-67
2023/02/10 02:37:46;;;;;;;101.47;47.13;;;4.50;99.90;;;;;;5045322;28;20048;-68
2023/02/10 02:40:14;;;;;;;96.93;45.78;;;4.40;99.90;;;;;;5046515;28;20040;-67
2023/02/10 02:42:40;;;;;;;100.97;48.40;;;4.40;99.90;;;;;;5041625;28;20371;-67
2023/02/10 02:45:09;;;;;;;97.47;46.55;;;4.40;99.90;;;;;;5037922;28;20075;-68
2023/02/10 02:47:55;;;;;;;106.80;49.65;;;4.40;99.90;;;;;;5045248;28;20040;-67
2023/02/10 02:50:44;;;;;;;95.85;47.85;;;4.50;99.90;;;;;;5042474;28;20024;-67
2023/02/10 02:53:12;;;;;;;96.32;48.22;;;4.50;99.90;;;;;;5036104;28;20125;-68
2023/02/10 02:55:52;;;;;;;93.72;46.03;;;4.50;99.90;;;;;;5040016;28;20104;-67
2023/02/10 02:58:29;;;;;;;94.90;44.90;;;4.50;99.90;;;;;;5045186;28;20037;-66
2023/02/10 03:01:04;;;;;;;109.28;49.50;;;4.60;99.90;;;;;;5045803;28;20018;-68
2023/02/10 03:03:33;;;;;;;103.60;48.65;;;4.60;99.90;;;;;;5042027;28;20039;-68
2023/02/10 03:06:00;;;;;;;94.28;47.15;;;4.60;99.90;;;;;;5046360;28;20029;-67
2023/02/10 03:08:26;;;;;;;104.03;48.75;;;4.50;99.90;;;;;;5040129;28;20029;-68
2023/02/10 03:10:52;;;;;;;104.07;50.05;;;4.50;99.90;;;;;;5046330;28;20028;-68
2023/02/10 03:13:17;;;;;;;112.25;54.72;;;4.60;99.90;;;;;;5037198;28;20496;-68
2023/02/10 03:15:43;;;;;;;107.03;50.92;;;4.50;99.90;;;;;;5048331;28;20082;-67
2023/02/10 03:18:08;;;;;;;124.50;54.58;;;4.50;99.90;;;;;;5042602;28;20040;-68
2023/02/10 03:20:34;;;;;;;128.07;55.45;;;4.40;99.90;;;;;;5039480;28;20029;-68
2023/02/10 03:23:00;;;;;;;124.43;57.38;;;4.40;99.90;;;;;;5048285;28;20421;-68
2023/02/10 03:25:25;;;;;;;126.80;58.50;;;4.40;99.90;;;;;;5046734;28;20033;-68
2023/02/10 03:27:51;;;;;;;114.50;53.78;;;4.40;99.90;;;;;;5044599;28;20100;-67
2023/02/10 03:30:16;;;;;;;119.95;53.72;;;4.40;99.90;;;;;;5041572;28;20071;-68
2023/02/10 03:32:42;;;;;;;112.30;54.17;;;4.40;99.90;;;;;;5048543;28;20029;-68
2023/02/10 03:35:08;;;;;;;118.05;52.50;;;4.30;99.90;;;;;;5044128;28;20099;-67
2023/02/10 03:37:33;;;;;;;108.70;50.40;;;4.40;99.90;;;;;;5041404;28;20033;-67
2023/02/10 03:39:59;;;;;;;108.32;51.08;;;4.40;99.90;;;;;;5046259;28;20037;-67
2023/02/10 03:42:24;;;;;;;107.57;51.90;;;4.40;99.90;;;;;;5035295;28;20018;-68
2023/02/10 03:44:50;;;;;;;103.97;49.55;;;4.40;99.90;;;;;;5045821;28;20021;-68
2023/02/10 03:47:16;;;;;;;97.80;48.67;;;4.40;99.90;;;;;;5045579;28;20100;-68
2023/02/10 03:49:41;;;;;;;98.15;46.67;;;4.30;99.90;;;;;;5049755;28;20017;-67
2023/02/10 03:52:07;;;;;;;95.90;46.13;;;4.30;99.90;;;;;;5041780;28;20041;-67
2023/02/10 03:54:33;;;;;;;99.55;47.75;;;4.30;99.90;;;;;;5045910;28;20030;-67
2023/02/10 03:56:59;;;;;;;99.63;50.08;;;4.20;99.90;;;;;;5041367;28;20477;-67
2023/02/10 03:59:25;;;;;;;106.78;51.58;;;4.20;99.90;;;;;;5037182;28;20100;-67
2023/02/10 04:01:50;;;;;;;102.45;50.22;;;4.20;99.90;;;;;;5040189;28;20029;-67
2023/02/10 04:04:16;;;;;;;114.70;51.65;;;4.10;99.90;;;;;;5040881;28;20477;-67
2023/02/10 04:06:42;;;;;;;102.38;49.70;;;4.10;99.90;;;;;;5047029;28;20413;-67
2023/02/10 04:09:07;;;;;;;99.22;48.20;;;4.10;99.90;;;;;;5038830;28;20144;-68
2023/02/10 04:11:33;;;;;;;111.93;52.28;;;4.20;99.90;;;;;;5042056;28;20104;-68
2023/02/10 04:13:58;;;;;;;100.68;47.53;;;4.10;99.90;;;;;;5048239;28;20029;-67
2023/02/10 04:16:27;;;;;;;107.63;50.08;;;4.10;99.90;;;;;;5042458;28;20026;-68
2023/02/10 04:18:53;;;;;;;102.57;49.85;;;4.10;99.90;;;;;;5040036;28;20032;-67
2023/02/10 04:21:20;;;;;;;108.03;52.22;;;4.00;99.90;;;;;;5034680;28;20033;-68
2023/02/10 04:23:45;;;;;;;121.68;55.78;;;4.00;99.90;;;;;;5034242;28;20061;-67
2023/02/10 04:26:11;;;;;;;101.22;51.25;;;4.00;99.90;;;;;;5047143;28;20508;-68
2023/02/10 04:28:36;;;;;;;102.65;46.25;;;4.10;99.90;;;;;;5048129;28;20128;-67
2023/02/10 04:31:02;;;;;;;112.28;53.00;;;4.10;99.90;;;;;;5045162;28;20075;-67
2023/02/10 04:33:28;;;;;;;131.25;61.25;;;4.00;99.90;;;;;;5041014;28;20124;-67
2023/02/10 04:35:54;;;;;;;121.00;55.47;;;4.00;99.90;;;;;;5046451;28;20565;-67
2023/02/10 04:38:20;;;;;;;128.57;56.75;;;4.00;99.90;;;;;;5043746;28;20068;-68
2023/02/10 04:40:46;;;;;;;130.80;59.15;;;4.00;99.90;;;;;;5045419;28;20028;-68
2023/02/10 04:43:13;;;;;;;114.55;54.85;;;4.00;99.90;;;;;;5040685;28;20033;-68
2023/02/10 04:45:39;;;;;;;114.07;52.95;;;4.00;99.90;;;;;;5042948;28;20036;-67
2023/02/10 04:48:05;;;;;;;110.75;49.75;;;4.10;99.90;;;;;;5042037;28;20026;-68
2023/02/10 04:50:30;;;;;;;130.68;55.65;;;4.10;99.90;;;;;;5041636;28;20036;-68
2023/02/10 04:52:56;;;;;;;115.47;52.80;;;4.10;99.90;;;;;;5046909;28;20374;-67
2023/02/10 04:55:22;;;;;;;131.43;55.72;;;4.10;99.90;;;;;;5045430;28;20816;-68
2023/02/10 04:57:48;;;;;;;127.30;54.97;;;4.00;99.90;;;;;;5049926;28;20122;-68
2023/02/10 05:00:14;;;;;;;136.60;57.92;;;4.00;99.90;;;;;;5044956;28;20029;-68
2023/02/10 05:02:40;;;;;;;132.13;56.05;;;4.00;99.90;;;;;;5040094;28;20025;-68
2023/02/10 05:05:06;;;;;;;135.38;56.58;;;4.00;99.90;;;;;;5047723;28;20053;-68
2023/02/10 05:07:32;;;;;;;131.38;56.72;;;4.00;99.90;;;;;;5045013;28;20032;-67
2023/02/10 05:09:57;;;;;;;132.18;58.33;;;4.00;99.90;;;;;;5040707;28;20021;-68
2023/02/10 05:12:23;;;;;;;132.90;56.58;;;4.10;99.90;;;;;;5044903;28;20033;-68
2023/02/10 05:14:49;;;;;;;129.88;56.67;;;4.00;99.90;;;;;;5048904;28;20070;-67
2023/02/10 05:17:14;;;;;;;146.93;61.15;;;4.10;99.90;;;;;;5048588;28;20033;-67
2023/02/10 05:19:40;;;;;;;159.48;60.72;;;4.00;99.90;;;;;;5046227;28;20037;-68
2023/02/10 05:22:05;;;;;;;176.88;70.35;;;3.90;99.90;;;;;;5049522;28;20017;-67
2023/02/10 05:24:31;;;;;;;174.70;64.88;;;3.80;99.90;;;;;;5046330;28;20029;-68
2023/02/10 05:26:57;;;;;;;239.90;75.03;;;3.80;99.90;;;;;;5048808;28;20021;-68
2023/02/10 05:29:22;;;;;;;204.18;69.82;;;3.90;99.90;;;;;;5045809;28;20074;-67
2023/02/10 05:31:48;;;;;;;194.00;67.55;;;4.00;99.90;;;;;;5042430;28;20367;-67
2023/02/10 05:34:13;;;;;;;209.00;71.07;;;4.10;99.90;;;;;;5052319;28;20115;-68
2023/02/10 05:36:39;;;;;;;181.18;63.85;;;4.10;99.90;;;;;;5042431;28;20260;-68
2023/02/10 05:39:23;;;;;;;211.05;71.00;;;4.10;99.90;;;;;;5044766;28;20036;-68
2023/02/10 05:41:49;;;;;;;335.98;88.80;;;4.10;99.90;;;;;;5043338;28;20389;-68
2023/02/10 05:44:15;;;;;;;207.50;71.43;;;4.10;99.90;;;;;;5046166;28;20481;-68
2023/02/10 05:46:41;;;;;;;224.23;74.97;;;4.10;99.90;;;;;;5051217;28;20017;-68
2023/02/10 05:49:07;;;;;;;257.50;75.95;;;4.10;99.90;;;;;;5045259;28;20030;-68
2023/02/10 05:51:32;;;;;;;281.27;79.35;;;4.20;99.90;;;;;;5043924;28;20371;-68
2023/02/10 05:53:58;;;;;;;252.70;77.35;;;4.20;99.90;;;;;;5049339;28;20036;-68
2023/02/10 05:56:23;;;;;;;211.55;67.70;;;4.30;99.90;;;;;;5041527;28;20029;-67
2023/02/10 05:58:49;;;;;;;238.63;78.82;;;4.30;99.90;;;;;;5047236;28;20103;-68
2023/02/10 06:01:15;;;;;;;202.45;73.93;;;4.40;99.90;;;;;;5054098;28;20491;-67
2023/02/10 06:03:41;;;;;;;241.32;75.88;;;4.30;99.90;;;;;;5051396;28;20564;-68
2023/02/10 06:06:07;;;;;;;276.65;80.50;;;4.40;99.90;;;;;;5045282;28;20112;-67
2023/02/10 06:08:32;;;;;;;231.00;74.38;;;4.40;99.90;;;;;;5048265;28;20039;-68
2023/02/10 06:10:58;;;;;;;244.20;74.55;;;4.40;99.90;;;;;;5041113;28;20030;-68
2023/02/10 06:13:24;;;;;;;321.02;81.63;;;4.40;99.90;;;;;;5045904;28;20118;-68
2023/02/10 06:15:49;;;;;;;337.92;86.80;;;4.40;99.90;;;;;;5044972;28;20017;-68
2023/02/10 06:18:15;;;;;;;274.77;81.63;;;4.50;99.90;;;;;;5049171;28;20532;-68
2023/02/10 06:20:40;;;;;;;274.10;78.95;;;4.50;99.90;;;;;;5044652;28;20021;-68
2023/02/10 06:23:06;;;;;;;252.77;76.82;;;4.60;99.90;;;;;;5048112;28;20449;-68
2023/02/10 06:25:35;;;;;;;249.93;72.07;;;4.60;99.90;;;;;;5040968;28;20114;-67
2023/02/10 06:28:01;;;;;;;230.48;73.28;;;4.60;99.90;;;;;;5045707;28;20025;-68
2023/02/10 06:30:27;;;;;;;177.98;61.85;;;4.60;99.90;;;;;;5043562;28;20036;-68
2023/02/10 06:32:52;;;;;;;280.95;79.10;;;4.60;99.90;;;;;;5040533;28;20036;-68
2023/02/10 06:35:18;;;;;;;208.40;65.22;;;4.60;99.90;;;;;;5040178;28;20025;-68
2023/02/10 06:37:43;;;;;;;237.88;69.07;;;4.70;99.90;;;;;;5042293;28;20564;-68
2023/02/10 06:40:10;;;;;;;256.50;75.97;;;4.70;99.90;;;;;;5045939;28;20474;-68
2023/02/10 06:42:35;;;;;;;223.13;70.85;;;4.60;99.90;;;;;;5040515;28;20071;-68
2023/02/10 06:45:01;;;;;;;229.02;72.07;;;4.60;99.90;;;;;;5047156;28;20045;-68
2023/02/10 06:47:27;;;;;;;233.90;69.70;;;4.70;99.90;;;;;;5042455;28;20141;-68
2023/02/10 06:49:52;;;;;;;195.90;62.80;;;4.80;99.90;;;;;;5041470;28;20477;-67
2023/02/10 06:52:18;;;;;;;223.82;67.75;;;4.80;99.90;;;;;;5048745;28;20040;-67
2023/02/10 06:54:44;;;;;;;219.23;65.38;;;4.80;99.90;;;;;;5051285;28;20025;-68
2023/02/10 06:57:10;;;;;;;221.68;66.45;;;4.90;99.90;;;;;;5048257;28;20440;-68
2023/02/10 06:59:35;;;;;;;186.23;59.42;;;4.90;99.90;;;;;;5046792;28;20036;-68
2023/02/10 07:02:02;;;;;;;177.18;61.50;;;4.90;99.90;;;;;;5039756;28;20064;-68
2023/02/10 07:04:31;;;;;;;175.38;57.75;;;4.90;99.90;;;;;;5045165;28;20033;-67
2023/02/10 07:06:58;;;;;;;215.50;65.10;;;4.90;99.90;;;;;;5036617;28;20045;-68
2023/02/10 07:09:24;;;;;;;200.25;64.45;;;4.90;99.90;;;;;;5045163;28;20037;-67
2023/02/10 07:11:50;;;;;;;163.80;54.67;;;4.90;99.90;;;;;;5047632;28;20032;-67
2023/02/10 07:14:16;;;;;;;187.35;60.53;;;4.90;99.90;;;;;;5049449;28;20017;-67
2023/02/10 07:16:42;;;;;;;199.65;64.45;;;4.90;99.90;;;;;;5039403;28;20128;-67
2023/02/10 07:19:08;;;;;;;189.13;59.90;;;4.90;99.90;;;;;;5043432;28;20099;-68
2023/02/10 07:21:33;;;;;;;180.90;61.63;;;5.00;99.90;;;;;;5039597;28;20117;-67
2023/02/10 07:24:01;;;;;;;190.35;63.50;;;5.00;99.90;;;;;;5038822;28;20470;-68
2023/02/10 07:26:27;;;;;;;196.70;62.25;;;5.10;99.90;;;;;;5034479;28;20400;-68
2023/02/10 07:28:53;;;;;;;169.05;59.00;;;5.00;99.90;;;;;;5042538;28;20033;-67
2023/02/10 07:31:18;;;;;;;147.27;54.28;;;5.00;99.90;;;;;;5048254;28;20037;-67
2023/02/10 07:33:44;;;;;;;181.90;64.88;;;5.00;99.90;;;;;;5044077;28;20033;-68
2023/02/10 07:36:10;;;;;;;162.93;60.25;;;5.10;99.90;;;;;;5039189;28;20139;-68
2023/02/10 07:38:37;;;;;;;186.38;62.63;;;5.10;99.90;;;;;;5043833;28;20033;-69
2023/02/10 07:41:04;;;;;;;172.68;59.13;;;5.10;99.90;;;;;;5042110;28;20032;-68
2023/02/10 07:43:30;;;;;;;161.68;59.63;;;5.10;99.90;;;;;;5038480;28;20052;-68
2023/02/10 07:45:55;;;;;;;172.90;64.13;;;5.20;99.90;;;;;;5049929;28;20473;-68
2023/02/10 07:48:21;;;;;;;163.75;61.03;;;5.20;99.90;;;;;;5047211;28;20032;-68
2023/02/10 07:50:47;;;;;;;173.30;62.97;;;5.20;99.90;;;;;;5039830;28;20028;-68
2023/02/10 07:53:13;;;;;;;159.98;63.30;;;5.20;99.90;;;;;;5043838;28;20028;-68
2023/02/10 07:55:39;;;;;;;161.38;64.65;;;5.30;99.90;;;;;;5042646;28;20033;-68
2023/02/10 07:58:06;;;;;;;168.00;66.57;;;5.30;99.90;;;;;;5043784;28;20070;-68
2023/02/10 08:00:32;;;;;;;161.60;65.10;;;5.30;99.90;;;;;;5044523;28;20557;-69
2023/02/10 08:02:58;;;;;;;158.57;62.78;;;5.30;99.90;;;;;;5047602;28;20029;-69
2023/02/10 08:05:23;;;;;;;146.75;61.50;;;5.30;99.90;;;;;;5046910;28;20551;-69
2023/02/10 08:07:49;;;;;;;145.25;64.32;;;5.30;99.90;;;;;;5038894;28;20116;-68
2023/02/10 08:10:15;;;;;;;152.02;64.00;;;5.30;99.90;;;;;;5044427;28;20021;-68
2023/02/10 08:12:40;;;;;;;141.57;63.20;;;5.30;99.90;;;;;;5045935;28;20079;-68
2023/02/10 08:15:07;;;;;;;141.73;62.17;;;5.40;99.90;;;;;;5043832;28;20407;-68
2023/02/10 08:17:33;;;;;;;136.95;60.50;;;5.40;99.90;;;;;;5041208;28;20045;-69
2023/02/10 08:19:59;;;;;;;147.60;59.38;;;5.50;99.90;;;;;;5038391;28;20036;-69
2023/02/10 08:22:25;;;;;;;137.13;61.92;;;5.50;99.90;;;;;;5041827;28;20083;-69
2023/02/10 08:24:51;;;;;;;124.15;60.20;;;5.50;99.90;;;;;;5039673;28;20039;-69
2023/02/10 08:27:16;;;;;;;130.73;58.15;;;5.40;99.90;;;;;;5042244;28;20036;-69
2023/02/10 08:29:42;;;;;;;138.48;59.47;;;5.40;99.90;;;;;;5041040;28;20025;-69
2023/02/10 08:32:08;;;;;;;129.07;58.70;;;5.50;99.90;;;;;;5045893;28;20030;-69
2023/02/10 08:34:34;;;;;;;130.27;57.35;;;5.40;99.90;;;;;;5046246;28;20037;-69
2023/02/10 08:36:59;;;;;;;122.18;56.22;;;5.40;99.90;;;;;;5043664;28;20457;-68
2023/02/10 08:39:28;;;;;;;118.57;55.80;;;5.40;99.90;;;;;;5038866;28;20030;-69
2023/02/10 08:41:53;;;;;;;121.60;55.55;;;5.40;99.90;;;;;;5042704;28;20026;-68
2023/02/10 08:44:19;;;;;;;129.55;57.67;;;5.50;99.90;;;;;;5043525;28;20044;-68
2023/02/10 08:46:44;;;;;;;133.35;59.13;;;5.60;99.90;;;;;;5043580;28;20025;-68
2023/02/10 08:49:10;;;;;;;120.97;57.60;;;5.60;99.90;;;;;;5044720;28;20025;-69
2023/02/10 08:51:38;;;;;;;116.15;55.55;;;5.70;99.90;;;;;;5042000;28;20021;-69
2023/02/10 08:54:05;;;;;;;121.35;58.20;;;5.60;99.90;;;;;;5042340;28;20044;-68
2023/02/10 08:56:30;;;;;;;119.88;55.80;;;5.60;99.90;;;;;;5041663;28;20024;-69
2023/02/10 08:58:56;;;;;;;114.00;54.85;;;5.60;99.90;;;;;;5041590;28;20040;-69
2023/02/10 09:01:27;;;;;;;115.82;55.83;;;5.70;99.90;;;;;;5046966;28;20103;-69
2023/02/10 09:03:54;;;;;;;127.38;58.70;;;5.70;99.90;;;;;;5041844;28;20529;-68
2023/02/10 09:06:28;;;;;;;138.07;57.72;;;5.70;99.90;;;;;;5044165;28;20029;-68
2023/02/10 09:08:53;;;;;;;121.93;55.30;;;5.70;99.90;;;;;;5043672;28;20045;-71
2023/02/10 09:11:22;;;;;;;126.32;57.13;;;5.80;99.90;;;;;;5048154;28;20027;-69
2023/02/10 09:13:48;;;;;;;123.55;55.30;;;5.90;99.90;;;;;;5045686;28;20032;-71
2023/02/10 09:16:13;;;;;;;125.60;56.33;;;6.00;99.90;;;;;;5047286;28;20120;-70
2023/02/10 09:18:39;;;;;;;117.30;58.55;;;6.10;99.90;;;;;;5047135;28;20033;-71
2023/02/10 09:21:05;;;;;;;123.38;58.40;;;6.00;99.90;;;;;;5042051;28;20026;-70
2023/02/10 09:23:30;;;;;;;121.40;57.25;;;6.00;99.90;;;;;;5048028;28;20087;-70
2023/02/10 09:25:58;;;;;;;118.95;57.47;;;5.90;99.90;;;;;;5043531;28;20032;-70
2023/02/10 09:28:25;;;;;;;113.43;56.78;;;5.90;99.90;;;;;;5049686;28;20052;-70
2023/02/10 09:30:51;;;;;;;111.60;57.15;;;5.90;99.90;;;;;;5039028;28;20024;-70
2023/02/10 09:33:18;;;;;;;114.28;56.50;;;6.00;99.90;;;;;;5041784;28;20611;-70
2023/02/10 09:35:43;;;;;;;115.57;55.92;;;6.10;99.90;;;;;;5040718;28;20039;-70
2023/02/10 09:38:11;;;;;;;116.30;56.53;;;6.20;99.90;;;;;;5045766;28;20494;-70
2023/02/10 09:40:55;;;;;;;112.93;54.45;;;6.30;99.90;;;;;;5047290;28;20045;-70
2023/02/10 09:43:53;;;;;;;110.72;51.70;;;6.30;99.90;;;;;;5042053;28;20025;-70
2023/02/10 09:46:43;;;;;;;102.90;50.95;;;6.40;99.90;;;;;;5039455;28;20030;-71
2023/02/10 09:49:39;;;;;;;108.30;51.92;;;6.50;99.90;;;;;;5033868;28;20428;-71
2023/02/10 09:52:20;;;;;;;110.95;52.90;;;6.60;99.90;;;;;;5050118;28;20059;-71
2023/02/10 09:54:46;;;;;;;111.15;54.45;;;6.70;99.90;;;;;;5041974;28;20112;-71
2023/02/10 09:57:34;;;;;;;109.32;53.25;;;6.80;99.90;;;;;;5033845;28;20547;-70
2023/02/10 10:00:01;;;;;;;103.75;53.85;;;7.00;99.90;;;;;;5031116;28;20122;-70
2023/02/10 10:02:49;;;;;;;100.75;52.95;;;7.00;99.90;;;;;;5031586;28;20032;-70
2023/02/10 10:05:40;;;;;;;108.18;52.92;;;7.10;99.90;;;;;;5035693;28;20765;-70
2023/02/10 10:08:41;;;;;;;111.78;58.92;;;7.20;99.90;;;;;;5029510;28;20060;-71
2023/02/10 10:11:36;;;;;;;105.00;53.13;;;7.30;99.90;;;;;;5029818;28;20068;-70
2023/02/10 10:14:03;;;;;;;110.78;50.67;;;7.30;99.90;;;;;;5034001;28;20032;-69
2023/02/10 10:16:53;;;;;;;97.82;50.45;;;7.40;99.90;;;;;;5032638;28;20036;-69
2023/02/10 10:19:42;;;;;;;100.07;53.90;;;7.40;99.90;;;;;;5034837;28;20037;-69
2023/02/10 10:22:30;;;;;;;102.53;53.13;;;7.50;99.90;;;;;;5033729;28;20080;-69
2023/02/10 10:25:07;;;;;;;97.50;51.50;;;7.60;99.90;;;;;;5035862;28;20029;-68
2023/02/10 10:28:01;;;;;;;97.15;50.15;;;7.70;99.90;;;;;;5029965;28;20072;-68
2023/02/10 10:30:46;;;;;;;99.28;52.80;;;7.80;99.90;;;;;;5036940;28;20024;-68
2023/02/10 10:33:24;;;;;;;97.90;49.13;;;7.80;99.90;;;;;;5036608;28;20021;-68
2023/02/10 10:35:51;;;;;;;91.40;47.72;;;7.90;99.90;;;;;;5031306;28;20545;-68
2023/02/10 10:38:25;;;;;;;95.85;46.03;;;7.80;99.90;;;;;;5031331;28;20037;-68
2023/02/10 10:40:55;;;;;;;90.50;48.25;;;8.00;99.90;;;;;;5032413;28;20117;-67
2023/02/10 10:43:27;;;;;;;92.60;48.47;;;8.10;99.90;;;;;;5043809;28;20021;-69
2023/02/10 10:46:01;;;;;;;88.93;46.88;;;8.20;99.90;;;;;;5033566;28;20022;-69
2023/02/10 10:48:30;;;;;;;84.57;47.58;;;8.30;99.90;;;;;;5030960;28;20147;-69
2023/02/10 10:51:02;;;;;;;91.20;48.88;;;8.40;99.90;;;;;;5031435;28;20402;-68
2023/02/10 10:53:48;;;;;;;91.87;47.23;;;8.40;99.90;;;;;;5033431;28;20036;-69
2023/02/10 10:56:36;;;;;;;92.22;45.97;;;8.60;99.90;;;;;;5032129;28;20315;-68
2023/02/10 10:59:15;;;;;;;97.32;48.55;;;8.70;99.90;;;;;;5029266;28;20029;-68
2023/02/10 11:01:43;;;;;;;82.07;47.60;;;8.70;99.90;;;;;;5031930;28;20064;-68
2023/02/10 11:04:17;;;;;;;88.38;47.53;;;8.90;99.90;;;;;;5041197;28;20028;-68
2023/02/10 11:06:49;;;;;;;84.68;44.67;;;8.90;99.90;;;;;;5031063;28;20140;-68
2023/02/10 11:09:24;;;;;;;85.10;44.42;;;8.90;99.90;;;;;;5029679;28;20029;-68
2023/02/10 11:11:50;;;;;;;85.57;45.35;;;9.10;99.90;;;;;;5028259;28;20036;-68
2023/02/10 11:14:21;;;;;;;83.65;45.85;;;9.20;99.90;;;;;;5028947;28;20450;-68
2023/02/10 11:16:57;;;;;;;79.82;43.50;;;9.20;99.90;;;;;;5030484;28;20026;-68
2023/02/10 11:19:28;;;;;;;77.63;43.30;;;9.30;99.90;;;;;;5029386;28;20025;-69
2023/02/10 11:21:54;;;;;;;85.05;43.67;;;9.30;99.90;;;;;;5029505;28;20033;-68
2023/02/10 11:24:22;;;;;;;77.15;43.28;;;9.30;99.90;;;;;;5030890;28;20037;-69
2023/02/10 11:26:54;;;;;;;75.88;42.33;;;9.40;99.90;;;;;;5032500;28;20040;-69
2023/02/10 11:29:19;;;;;;;79.07;41.10;;;9.40;99.90;;;;;;5038308;28;20028;-69
2023/02/10 11:31:45;;;;;;;70.80;37.83;;;9.50;99.90;;;;;;5033264;28;20026;-69
2023/02/10 11:34:20;;;;;;;67.47;35.88;;;9.50;99.90;;;;;;5029215;28;20077;-69
2023/02/10 11:36:46;;;;;;;59.95;35.53;;;9.50;99.90;;;;;;5031662;28;20374;-70
2023/02/10 11:39:35;;;;;;;62.70;36.42;;;9.60;99.90;;;;;;5035843;28;20095;-70
2023/02/10 11:42:20;;;;;;;56.90;33.83;;;9.60;99.90;;;;;;5029699;28;20537;-69
2023/02/10 11:45:26;;;;;;;60.20;33.85;;;9.60;99.90;;;;;;5032366;28;20179;-69
2023/02/10 11:48:27;;;;;;;57.58;32.22;;;9.60;99.90;;;;;;5032920;28;20108;-68
2023/02/10 11:51:02;;;;;;;60.88;34.88;;;9.70;99.90;;;;;;5027281;28;20045;-68
2023/02/10 11:53:31;;;;;;;55.03;32.60;;;9.80;99.90;;;;;;5028655;28;20405;-68
2023/02/10 11:56:02;;;;;;;56.30;31.15;;;9.80;99.90;;;;;;5028450;28;20112;-69
2023/02/10 11:59:03;;;;;;;55.83;31.20;;;9.80;99.90;;;;;;5031816;28;20045;-69
2023/02/10 12:01:28;;;;;;;54.33;30.20;;;9.90;99.90;;;;;;5030835;28;20398;-69
2023/02/10 12:03:54;;;;;;;50.58;28.73;;;9.90;99.90;;;;;;5030429;28;20028;-69
2023/02/10 12:06:28;;;;;;;48.45;31.30;;;9.80;99.90;;;;;;5029530;28;20493;-69
2023/02/10 12:09:19;;;;;;;59.58;32.35;;;9.80;99.90;;;;;;5028960;28;20028;-69
2023/02/10 12:12:11;;;;;;;53.92;28.85;;;9.70;99.90;;;;;;5039488;28;20029;-69
2023/02/10 12:14:36;;;;;;;51.08;30.50;;;9.70;99.90;;;;;;5026618;28;20048;-69
2023/02/10 12:17:08;;;;;;;55.67;33.65;;;9.80;99.90;;;;;;5032126;28;20033;-69
2023/02/10 12:19:56;;;;;;;50.57;29.77;;;9.90;99.90;;;;;;5030988;28;20025;-69
2023/02/10 12:22:43;;;;;;;50.72;31.33;;;9.90;99.90;;;;;;5029713;28;20398;-69
2023/02/10 12:25:25;;;;;;;53.15;29.55;;;9.90;99.90;;;;;;5028388;28;20034;-69
2023/02/10 12:28:14;;;;;;;46.55;28.05;;;9.80;99.90;;;;;;5029352;28;20019;-69
2023/02/10 12:30:54;;;;;;;56.80;29.92;;;9.80;99.90;;;;;;5030423;28;20377;-69
2023/02/10 12:33:41;;;;;;;55.63;31.92;;;9.80;99.90;;;;;;5030557;28;20035;-69
2023/02/10 12:36:37;;;;;;;56.92;30.27;;;9.90;99.90;;;;;;5027989;28;20034;-69
2023/02/10 12:39:19;;;;;;;55.50;30.35;;;9.90;99.90;;;;;;5030068;28;20038;-69
2023/02/10 12:41:56;;;;;;;50.67;30.17;;;10.00;99.90;;;;;;5026585;28;20018;-69
2023/02/10 12:44:44;;;;;;;51.25;31.25;;;10.00;99.90;;;;;;5030493;28;20033;-69